CGX12 KTPA-
Flight info
| Callsign | CGX12 |
|---|---|
| Flight time | N/A |
| Altitude | VFR |
| Route | |
| Aircraft | UH64/L-VGD/C |
Departure
| Time | 2026-05-03 21:05 |
|---|---|
| Airport | Tampa International Airport (KTPA) |
Arrival
| Time | N/A |
|---|---|
| Airport | - |
| Time | Latitude | Longitude | Altitude | Speed | Heading |
|---|---|---|---|---|---|
| 2026-05-03 21:04 | 27.87138 | -82.43304 | 654 ft | 126 kts | 140° |
| 2026-05-03 21:05 | 27.86437 | -82.42716 | 641 ft | 125 kts | 140° |
| 2026-05-03 21:05 | 27.85733 | -82.42127 | 635 ft | 126 kts | 140° |
| 2026-05-03 21:05 | 27.85011 | -82.41563 | 642 ft | 126 kts | 140° |
| 2026-05-03 21:05 | 27.84306 | -82.40984 | 652 ft | 125 kts | 140° |
| 2026-05-03 21:06 | 27.83602 | -82.40395 | 647 ft | 126 kts | 140° |
| 2026-05-03 21:06 | 27.82886 | -82.39813 | 643 ft | 128 kts | 140° |
| 2026-05-03 21:06 | 27.82170 | -82.39225 | 639 ft | 129 kts | 140° |
| 2026-05-03 21:06 | 27.81433 | -82.38659 | 644 ft | 128 kts | 140° |
| 2026-05-03 21:07 | 27.80696 | -82.38092 | 639 ft | 129 kts | 140° |
| 2026-05-03 21:07 | 27.79957 | -82.37508 | 641 ft | 130 kts | 140° |
| 2026-05-03 21:07 | 27.79227 | -82.36911 | 645 ft | 130 kts | 140° |
| 2026-05-03 21:07 | 27.79175 | -82.36871 | 645 ft | 130 kts | 140° |
| 2026-05-03 21:11 | 27.78930 | -82.36673 | 717 ft | 129 kts | 140° |
| 2026-05-03 21:11 | 27.78191 | -82.36098 | 668 ft | 129 kts | 140° |
| 2026-05-03 21:11 | 27.77465 | -82.35496 | 719 ft | 130 kts | 140° |
| 2026-05-03 21:11 | 27.76735 | -82.34926 | 595 ft | 127 kts | 142° |
| 2026-05-03 21:12 | 27.76023 | -82.34346 | 606 ft | 125 kts | 142° |
| 2026-05-03 21:12 | 27.75298 | -82.33790 | 608 ft | 126 kts | 142° |
| 2026-05-03 21:12 | 27.74565 | -82.33252 | 615 ft | 126 kts | 142° |
| 2026-05-03 21:12 | 27.73834 | -82.32697 | 620 ft | 128 kts | 142° |
| 2026-05-03 21:13 | 27.73066 | -82.32172 | 616 ft | 129 kts | 142° |
| 2026-05-03 21:13 | 27.72308 | -82.31633 | 616 ft | 128 kts | 142° |
| 2026-05-03 21:13 | 27.71569 | -82.31079 | 627 ft | 128 kts | 142° |
| 2026-05-03 21:13 | 27.70800 | -82.30551 | 632 ft | 130 kts | 142° |
| 2026-05-03 21:14 | 27.70032 | -82.30011 | 640 ft | 129 kts | 142° |
| 2026-05-03 21:14 | 27.69305 | -82.29439 | 891 ft | 122 kts | 142° |
| 2026-05-03 21:14 | 27.68691 | -82.28992 | 1302 ft | 103 kts | 141° |
| 2026-05-03 21:14 | 27.68044 | -82.28594 | 691 ft | 108 kts | 144° |
| 2026-05-03 21:15 | 27.67387 | -82.28274 | 350 ft | 95 kts | 175° |
| 2026-05-03 21:15 | 27.66975 | -82.28423 | 115 ft | 47 kts | 252° |
| 2026-05-03 21:15 | 27.66938 | -82.28653 | 54 ft | 10 kts | 269° |
| 2026-05-03 21:15 | 27.66940 | -82.28661 | 41 ft | 0 kts | 271° |
| 2026-05-03 21:16 | 27.66813 | -82.28793 | 109 ft | 57 kts | 192° |
| 2026-05-03 21:16 | 27.66189 | -82.28681 | 105 ft | 100 kts | 146° |
| 2026-05-03 21:16 | 27.65806 | -82.28474 | 61 ft | 19 kts | 332° |
| 2026-05-03 21:16 | 27.65831 | -82.28475 | 57 ft | 0 kts | 346° |